createdAt,value
2022-10-02T00:02:01.285Z,97669.84
2022-10-02T00:04:58.685Z,97671.53
2022-10-02T00:07:28.997Z,97676.66
2022-10-02T00:09:58.346Z,97671.53
2022-10-02T00:12:25.423Z,97664.56
2022-10-02T00:14:53.518Z,97679.22
2022-10-02T00:17:27.327Z,97682.50
2022-10-02T00:19:55.102Z,97686.91
2022-10-02T00:23:06.657Z,97698.88
2022-10-02T00:25:37.899Z,97698.88
2022-10-02T00:28:12.409Z,97703.13
2022-10-02T00:30:49.221Z,97705.69
2022-10-02T00:33:29.271Z,97732.19
2022-10-02T00:36:18.509Z,97725.34
2022-10-02T00:38:50.148Z,97713.25
2022-10-02T00:41:22.373Z,97721.06
2022-10-02T00:44:10.497Z,97725.31
2022-10-02T00:47:00.396Z,97709.81
2022-10-02T00:49:32.765Z,97725.34
2022-10-02T00:52:18.201Z,97709.13
2022-10-02T00:55:01.084Z,97729.63
2022-10-02T00:57:50.304Z,97718.47
2022-10-02T01:00:19.956Z,97727.06
2022-10-02T01:02:58.495Z,97717.59
2022-10-02T01:05:27.320Z,97720.19
2022-10-02T01:07:54.600Z,97721.94
2022-10-02T01:10:22.321Z,97730.47
2022-10-02T01:12:50.059Z,97716.81
2022-10-02T01:15:18.539Z,97722.75
2022-10-02T01:17:45.883Z,97714.00
2022-10-02T01:20:17.680Z,97726.06
2022-10-02T01:22:49.107Z,97725.31
2022-10-02T01:25:15.571Z,97712.38
2022-10-02T01:27:42.123Z,97706.44
2022-10-02T01:30:11.446Z,97709.13
2022-10-02T01:32:42.799Z,97703.94
2022-10-02T01:35:09.284Z,97705.69
2022-10-02T01:37:38.558Z,97701.28
2022-10-02T01:40:09.086Z,97709.97
2022-10-02T01:42:36.530Z,97715.94
2022-10-02T01:45:06.905Z,97713.25
2022-10-02T01:47:56.024Z,97726.25
2022-10-02T01:50:47.103Z,97714.06
2022-10-02T01:53:39.766Z,97738.16
2022-10-02T01:56:45.293Z,97728.75
2022-10-02T01:59:25.182Z,97737.31
2022-10-02T02:02:04.743Z,97725.19
2022-10-02T02:04:43.895Z,97737.31
2022-10-02T02:07:14.941Z,97741.56
2022-10-02T02:09:59.368Z,97737.31
2022-10-02T02:12:47.442Z,97736.44
2022-10-02T02:15:22.959Z,97711.31
2022-10-02T02:17:56.135Z,97722.72
2022-10-02T02:20:32.896Z,97737.28
2022-10-02T02:23:05.227Z,97734.69
2022-10-02T02:25:32.366Z,97735.56
2022-10-02T02:28:01.191Z,97710.56
2022-10-02T02:30:27.722Z,97714.22
2022-10-02T02:33:02.544Z,97719.34
2022-10-02T02:35:32.996Z,97725.31
2022-10-02T02:38:07.722Z,97720.19
2022-10-02T02:40:36.989Z,97733.00
2022-10-02T02:43:07.867Z,97735.56
2022-10-02T02:45:58.073Z,97731.31
2022-10-02T02:48:39.406Z,97738.13
2022-10-02T02:51:15.272Z,97726.94
2022-10-02T02:53:44.508Z,97733.88
2022-10-02T02:56:13.908Z,97735.53
2022-10-02T02:58:52.012Z,97739.84
2022-10-02T03:01:18.633Z,97738.13
2022-10-02T03:03:45.152Z,97746.69
2022-10-02T03:06:18.411Z,97739.84
2022-10-02T03:08:45.022Z,97762.06
2022-10-02T03:11:45.268Z,97769.75
2022-10-02T03:14:42.463Z,97766.31
2022-10-02T03:17:27.074Z,97761.19
2022-10-02T03:20:31.236Z,97762.91
2022-10-02T03:23:03.652Z,97749.25
2022-10-02T03:25:52.940Z,97741.31
2022-10-02T03:28:53.632Z,97756.03
2022-10-02T03:31:14.583Z,97755.13
2022-10-02T03:33:41.640Z,97750.91
2022-10-02T03:36:10.167Z,97761.16
2022-10-02T03:38:36.663Z,97770.50
2022-10-02T03:41:03.124Z,97768.84
2022-10-02T03:43:29.825Z,97770.56
2022-10-02T03:45:56.460Z,97773.13
2022-10-02T03:48:22.943Z,97769.72
2022-10-02T03:50:52.488Z,97760.19
2022-10-02T03:53:21.086Z,97768.78
2022-10-02T03:56:17.029Z,97774.84
2022-10-02T03:58:45.496Z,97756.66
2022-10-02T04:01:24.924Z,97773.97
2022-10-02T04:03:56.405Z,97762.00
2022-10-02T04:06:26.717Z,97759.47
2022-10-02T04:09:26.854Z,97764.59
2022-10-02T04:11:57.633Z,97757.78
2022-10-02T04:14:29.877Z,97743.88
2022-10-02T04:17:06.878Z,97762.03
2022-10-02T04:19:37.188Z,97748.28
2022-10-02T04:22:28.164Z,97746.66
2022-10-02T04:25:02.683Z,97761.16
2022-10-02T04:27:38.488Z,97766.28
2022-10-02T04:30:07.307Z,97762.88
2022-10-02T04:32:34.611Z,97768.84
2022-10-02T04:35:02.827Z,97768.00
2022-10-02T04:37:38.684Z,97771.41
2022-10-02T04:40:21.784Z,97767.16
2022-10-02T04:42:51.180Z,97754.34
2022-10-02T04:45:36.245Z,97756.03
2022-10-02T04:48:28.939Z,97758.59
2022-10-02T04:51:04.062Z,97750.00
2022-10-02T04:53:42.784Z,97750.06
2022-10-02T04:56:09.180Z,97753.47
2022-10-02T04:58:46.519Z,97758.59
2022-10-02T05:01:34.225Z,97756.88
2022-10-02T05:04:14.980Z,97756.03
2022-10-02T05:07:12.379Z,97760.31
2022-10-02T05:09:57.016Z,97757.75
2022-10-02T05:12:51.422Z,97755.19
2022-10-02T05:15:29.016Z,97768.84
2022-10-02T05:18:18.150Z,97758.59
2022-10-02T05:21:07.305Z,97777.41
2022-10-02T05:23:39.938Z,97778.25
2022-10-02T05:26:23.359Z,97779.97
2022-10-02T05:28:59.178Z,97773.97
2022-10-02T05:31:43.938Z,97770.56
2022-10-02T05:34:16.617Z,97779.94
2022-10-02T05:36:42.979Z,97779.94
2022-10-02T05:39:17.923Z,97760.91
2022-10-02T05:41:59.005Z,97779.00
2022-10-02T05:44:35.763Z,97781.66
2022-10-02T05:47:13.004Z,97777.38
2022-10-02T05:49:44.794Z,97782.50
2022-10-02T05:52:20.525Z,97785.94
2022-10-02T05:54:56.160Z,97789.34
2022-10-02T05:57:22.598Z,97785.06
2022-10-02T06:00:31.223Z,97779.94
2022-10-02T06:03:31.466Z,97780.81
2022-10-02T06:06:22.121Z,97778.25
2022-10-02T06:09:03.382Z,97779.94
2022-10-02T06:11:42.444Z,97762.66
2022-10-02T06:14:30.645Z,97772.25
2022-10-02T06:17:09.193Z,97774.81
2022-10-02T06:19:53.724Z,97772.25
2022-10-02T06:22:21.732Z,97776.47
2022-10-02T06:24:54.345Z,97764.56
2022-10-02T06:27:34.731Z,97777.38
2022-10-02T06:30:12.805Z,97763.47
2022-10-02T06:32:41.158Z,97776.53
2022-10-02T06:35:12.543Z,97779.94
2022-10-02T06:37:59.204Z,97775.69
2022-10-02T06:40:42.860Z,97760.00
2022-10-02T06:43:15.287Z,97772.25
2022-10-02T06:45:47.467Z,97772.25
2022-10-02T06:48:43.368Z,97770.56
2022-10-02T06:51:18.404Z,97769.69
2022-10-02T06:54:08.947Z,97773.03
2022-10-02T06:56:44.431Z,97779.03
2022-10-02T06:59:38.816Z,97775.63
2022-10-02T07:02:08.153Z,97760.25
2022-10-02T07:04:44.201Z,97769.69
2022-10-02T07:07:32.515Z,97764.56
2022-10-02T07:10:31.575Z,97772.25
2022-10-02T07:13:25.968Z,97770.50
2022-10-02T07:16:06.767Z,97773.06
2022-10-02T07:19:05.084Z,97771.34
2022-10-02T07:21:46.780Z,97778.19
2022-10-02T07:24:31.893Z,97780.75
2022-10-02T07:27:12.021Z,97775.63
2022-10-02T07:29:41.498Z,97777.38
2022-10-02T07:32:26.735Z,97769.69
2022-10-02T07:34:56.096Z,97774.81
2022-10-02T07:37:41.636Z,97769.63
2022-10-02T07:40:19.812Z,97765.38
2022-10-02T07:43:04.993Z,97770.50
2022-10-02T07:45:36.519Z,97774.81
2022-10-02T07:48:18.492Z,97764.50
2022-10-02T07:51:01.179Z,97762.81
2022-10-02T07:53:39.235Z,97768.78
2022-10-02T07:56:08.120Z,97761.09
2022-10-02T07:58:42.979Z,97764.56
2022-10-02T08:01:13.067Z,97752.50
2022-10-02T08:03:43.429Z,97766.22
2022-10-02T08:06:09.889Z,97758.50
2022-10-02T08:08:43.733Z,97759.38
2022-10-02T08:11:10.092Z,97764.56
2022-10-02T08:13:39.793Z,97765.38
2022-10-02T08:16:06.324Z,97769.69
2022-10-02T08:18:42.218Z,97764.25
2022-10-02T08:21:15.255Z,97769.59
2022-10-02T08:23:57.136Z,97765.97
2022-10-02T08:26:46.421Z,97764.38
2022-10-02T08:29:47.177Z,97771.34
2022-10-02T08:32:13.780Z,97765.38
2022-10-02T08:34:41.012Z,97764.56
2022-10-02T08:37:16.577Z,97770.50
2022-10-02T08:39:53.351Z,97767.94
2022-10-02T08:42:22.689Z,97763.66
2022-10-02T08:45:16.453Z,97762.78
2022-10-02T08:48:25.110Z,97759.44
2022-10-02T08:51:10.253Z,97765.38
2022-10-02T08:54:04.690Z,97770.50
2022-10-02T08:56:34.621Z,97765.38
2022-10-02T08:59:19.086Z,97763.63
2022-10-02T09:01:45.544Z,97761.06
2022-10-02T09:04:40.656Z,97757.69
2022-10-02T09:07:29.351Z,97747.44
2022-10-02T09:10:01.105Z,97742.28
2022-10-02T09:13:22.157Z,97745.69
2022-10-02T09:16:04.475Z,97742.28
2022-10-02T09:18:45.948Z,97738.88
2022-10-02T09:21:19.978Z,97731.06
2022-10-02T09:24:14.120Z,97739.72
2022-10-02T09:26:52.169Z,97732.03
2022-10-02T09:29:40.687Z,97732.03
2022-10-02T09:32:44.308Z,97733.75
2022-10-02T09:35:39.118Z,97728.63
2022-10-02T09:38:30.014Z,97728.63
2022-10-02T09:41:02.603Z,97712.38
2022-10-02T09:43:52.996Z,97714.13
2022-10-02T09:46:37.067Z,97714.13
2022-10-02T09:49:20.812Z,97709.84
2022-10-02T09:52:01.387Z,97715.81
2022-10-02T09:54:46.381Z,97710.69
2022-10-02T09:57:50.500Z,97723.50
2022-10-02T10:00:37.763Z,97698.75
2022-10-02T10:03:42.551Z,97691.84
2022-10-02T10:06:46.041Z,97692.75
2022-10-02T10:09:36.473Z,97691.06
2022-10-02T10:12:16.724Z,97639.06
2022-10-02T10:14:55.322Z,97689.31
2022-10-02T10:17:43.703Z,97693.63
2022-10-02T10:20:36.685Z,97696.19
2022-10-02T10:23:21.525Z,97692.75
2022-10-02T10:25:57.104Z,97677.38
2022-10-02T10:28:43.674Z,97675.69
2022-10-02T10:31:22.440Z,97673.94
2022-10-02T10:34:14.047Z,97663.69
2022-10-02T10:37:21.151Z,97663.69
2022-10-02T10:39:59.667Z,97655.13
2022-10-02T10:43:07.971Z,97673.94
2022-10-02T10:46:08.903Z,97673.13
2022-10-02T10:48:49.329Z,97680.81
2022-10-02T10:51:40.995Z,97673.13
2022-10-02T10:54:27.952Z,97678.25
2022-10-02T10:57:12.903Z,97683.38
2022-10-02T11:00:07.223Z,97671.41
2022-10-02T11:02:54.586Z,97650.88
2022-10-02T11:05:33.272Z,97652.63
2022-10-02T11:08:18.551Z,97656.00
2022-10-02T11:11:24.153Z,97654.31
2022-10-02T11:14:12.703Z,97654.28
2022-10-02T11:17:15.301Z,97669.69
2022-10-02T11:19:54.020Z,97674.81
2022-10-02T11:22:39.119Z,97672.25
2022-10-02T11:25:26.885Z,97661.13
2022-10-02T11:28:09.433Z,97664.56
2022-10-02T11:31:17.335Z,97673.09
2022-10-02T11:34:05.520Z,97665.41
2022-10-02T11:36:42.653Z,97666.25
2022-10-02T11:39:33.560Z,97658.56
2022-10-02T11:42:18.734Z,97665.41
2022-10-02T11:45:26.613Z,97670.53
2022-10-02T11:48:09.101Z,97666.25
2022-10-02T11:50:59.411Z,97683.34
2022-10-02T11:53:45.860Z,97624.25
2022-10-02T11:56:22.213Z,97677.34
2022-10-02T11:58:56.836Z,97667.13
2022-10-02T12:01:32.512Z,97687.63
2022-10-02T12:04:18.947Z,97676.50
2022-10-02T12:07:09.644Z,97686.78
2022-10-02T12:09:54.640Z,97662.00
2022-10-02T12:12:41.716Z,97662.88
2022-10-02T12:15:35.700Z,97660.31
2022-10-02T12:18:52.987Z,97656.88
2022-10-02T12:21:49.972Z,97671.38
2022-10-02T12:24:44.631Z,97670.56
2022-10-02T12:27:22.159Z,97658.56
2022-10-02T12:30:07.511Z,97656.00
2022-10-02T12:32:37.412Z,97658.56
2022-10-02T12:35:22.642Z,97663.69
2022-10-02T12:38:07.435Z,97662.84
2022-10-02T12:40:33.982Z,97671.34
2022-10-02T12:43:38.309Z,97672.22
2022-10-02T12:46:39.466Z,97623.25
2022-10-02T12:49:19.933Z,97638.06
2022-10-02T12:52:27.772Z,97634.66
2022-10-02T12:55:28.206Z,97632.09
2022-10-02T12:57:58.755Z,97656.00
2022-10-02T13:00:47.147Z,97655.16
2022-10-02T13:03:22.842Z,97656.88
2022-10-02T13:06:17.427Z,97650.88
2022-10-02T13:09:05.029Z,97638.94
2022-10-02T13:11:35.376Z,97574.78
2022-10-02T13:14:25.187Z,97638.94
2022-10-02T13:17:22.804Z,97613.97
2022-10-02T13:20:01.078Z,97635.50
2022-10-02T13:22:36.896Z,97645.75
2022-10-02T13:25:24.110Z,97637.22
2022-10-02T13:27:59.243Z,97648.31
2022-10-02T13:30:25.792Z,97584.22
2022-10-02T13:33:08.454Z,97636.38
2022-10-02T13:36:35.122Z,97640.63
2022-10-02T13:39:22.497Z,97586.72
2022-10-02T13:42:04.177Z,97639.78
2022-10-02T13:45:01.592Z,97643.19
2022-10-02T13:47:34.104Z,97643.19
2022-10-02T13:50:31.716Z,97637.22
2022-10-02T13:53:14.071Z,97628.66
2022-10-02T13:55:47.065Z,97635.50
2022-10-02T13:58:25.587Z,97618.41
2022-10-02T14:01:27.091Z,97602.75
2022-10-02T14:04:05.747Z,97593.66
2022-10-02T14:06:38.729Z,97515.81
2022-10-02T14:09:12.267Z,97585.97
2022-10-02T14:12:16.572Z,97595.34
2022-10-02T14:15:03.676Z,97611.59
2022-10-02T14:17:43.658Z,97617.56
2022-10-02T14:20:47.497Z,97627.81
2022-10-02T14:23:21.589Z,97632.09
2022-10-02T14:26:10.068Z,97632.94
2022-10-02T14:29:08.332Z,97634.66
2022-10-02T14:32:14.888Z,97623.53
2022-10-02T14:35:06.477Z,97626.97
2022-10-02T14:37:51.431Z,97632.09
2022-10-02T14:40:18.688Z,97616.72
2022-10-02T14:43:14.520Z,97612.41
2022-10-02T14:45:56.334Z,97613.31
2022-10-02T14:48:51.860Z,97595.34
2022-10-02T14:51:37.195Z,97593.66
2022-10-02T14:54:37.865Z,97587.47
2022-10-02T14:57:28.631Z,97601.31
2022-10-02T15:00:10.908Z,97603.91
2022-10-02T15:02:57.307Z,97620.09
2022-10-02T15:05:32.876Z,97620.13
2022-10-02T15:08:00.006Z,97607.28
2022-10-02T15:10:27.328Z,97603.88
2022-10-02T15:13:09.988Z,97620.09
2022-10-02T15:16:30.560Z,97605.59
2022-10-02T15:19:03.807Z,97599.59
2022-10-02T15:21:33.857Z,97538.06
2022-10-02T15:24:29.476Z,97594.50
2022-10-02T15:27:10.959Z,97588.53
2022-10-02T15:29:44.570Z,97590.22
2022-10-02T15:32:35.377Z,97601.34
2022-10-02T15:35:30.000Z,97597.91
2022-10-02T15:38:34.194Z,97605.59
2022-10-02T15:41:12.572Z,97605.59
2022-10-02T15:43:39.172Z,97614.16
2022-10-02T15:46:15.384Z,97622.66
2022-10-02T15:49:01.144Z,97603.88
2022-10-02T15:51:50.684Z,97600.47
2022-10-02T15:54:49.128Z,97609.03
2022-10-02T15:57:25.939Z,97581.44
2022-10-02T16:00:08.498Z,97591.03
2022-10-02T16:03:02.939Z,97615.84
2022-10-02T16:05:42.227Z,97621.81
2022-10-02T16:08:21.465Z,97629.50
2022-10-02T16:11:25.648Z,97626.94
2022-10-02T16:14:15.560Z,97619.25
2022-10-02T16:16:46.740Z,97613.25
2022-10-02T16:19:47.919Z,97617.53
2022-10-02T16:22:30.913Z,97643.19
2022-10-02T16:25:27.485Z,97652.59
2022-10-02T16:28:09.132Z,97644.75
2022-10-02T16:30:50.804Z,97647.44
2022-10-02T16:33:19.753Z,97647.41
2022-10-02T16:35:51.222Z,97631.91
2022-10-02T16:38:22.353Z,97651.72
2022-10-02T16:40:59.516Z,97660.22
2022-10-02T16:43:52.851Z,97666.25
2022-10-02T16:46:32.069Z,97669.66
2022-10-02T16:49:20.752Z,97679.91
2022-10-02T16:52:05.988Z,97685.03
2022-10-02T16:55:09.905Z,97698.72
2022-10-02T16:57:39.334Z,97700.41
2022-10-02T17:00:27.393Z,97694.19
2022-10-02T17:03:28.839Z,97714.06
2022-10-02T17:06:27.083Z,97726.03
2022-10-02T17:09:31.800Z,97736.25
2022-10-02T17:12:10.524Z,97739.69
2022-10-02T17:14:57.963Z,97740.47
2022-10-02T17:17:50.057Z,97736.16
2022-10-02T17:20:27.561Z,97741.41
2022-10-02T17:23:03.404Z,97743.94
2022-10-02T17:25:52.368Z,97754.22
2022-10-02T17:28:50.266Z,97751.56
2022-10-02T17:31:36.484Z,97749.09
2022-10-02T17:34:16.840Z,97741.22
2022-10-02T17:37:08.472Z,97755.06
2022-10-02T17:39:57.023Z,97758.47
2022-10-02T17:42:41.169Z,97755.06
2022-10-02T17:45:26.242Z,97763.59
2022-10-02T17:48:17.797Z,97766.16
2022-10-02T17:50:53.323Z,97772.09
2022-10-02T17:53:45.524Z,97780.69
2022-10-02T17:56:29.563Z,97783.25
2022-10-02T17:59:19.911Z,97792.59
2022-10-02T18:02:02.142Z,97788.38
2022-10-02T18:04:41.526Z,97782.22
2022-10-02T18:07:29.232Z,97779.78
2022-10-02T18:10:04.898Z,97788.38
2022-10-02T18:12:43.169Z,97790.94
2022-10-02T18:15:33.943Z,97790.03
2022-10-02T18:18:01.687Z,97789.16
2022-10-02T18:20:35.679Z,97783.19
2022-10-02T18:23:37.544Z,97787.47
2022-10-02T18:26:19.435Z,97776.09
2022-10-02T18:29:14.999Z,97819.13
2022-10-02T18:31:58.566Z,97824.94
2022-10-02T18:34:54.497Z,97837.06
2022-10-02T18:37:39.554Z,97825.03
2022-10-02T18:40:28.521Z,97833.59
2022-10-02T18:43:13.337Z,97848.97
2022-10-02T18:45:52.062Z,97824.53
2022-10-02T18:48:43.377Z,97849.78
2022-10-02T18:51:19.918Z,97856.66
2022-10-02T18:54:07.881Z,97838.72
2022-10-02T18:57:08.180Z,97837.84
2022-10-02T18:59:44.812Z,97862.69
2022-10-02T19:03:02.477Z,97862.69
2022-10-02T19:05:46.137Z,97847.97
2022-10-02T19:08:54.713Z,97859.22
2022-10-02T19:11:26.297Z,97862.63
2022-10-02T19:13:52.791Z,97862.63
2022-10-02T19:16:26.012Z,97849.81
2022-10-02T19:19:21.248Z,97848.84
2022-10-02T19:21:47.767Z,97848.00
2022-10-02T19:24:16.372Z,97824.50
2022-10-02T19:26:50.760Z,97852.38
2022-10-02T19:29:28.622Z,97851.50
2022-10-02T19:31:55.865Z,97847.25
2022-10-02T19:34:27.610Z,97843.81
2022-10-02T19:36:57.089Z,97838.50
2022-10-02T19:39:37.319Z,97862.50
2022-10-02T19:42:08.011Z,97848.56
2022-10-02T19:44:38.448Z,97876.28
2022-10-02T19:47:31.794Z,97863.25
2022-10-02T19:49:59.100Z,97877.13
2022-10-02T19:52:37.865Z,97884.84
2022-10-02T19:55:16.393Z,97879.59
2022-10-02T19:57:43.208Z,97889.97
2022-10-02T20:00:15.187Z,97888.25
2022-10-02T20:02:44.888Z,97869.94
2022-10-02T20:05:17.533Z,97898.50
2022-10-02T20:07:44.063Z,97897.56
2022-10-02T20:10:11.405Z,97902.78
2022-10-02T20:12:43.454Z,97896.78
2022-10-02T20:15:18.004Z,97870.88
2022-10-02T20:17:44.509Z,97883.84
2022-10-02T20:20:12.983Z,97896.78
2022-10-02T20:22:48.415Z,97900.19
2022-10-02T20:25:28.440Z,97906.19
2022-10-02T20:28:08.626Z,97918.16
2022-10-02T20:30:38.226Z,97897.34
2022-10-02T20:33:09.536Z,97885.88
2022-10-02T20:35:40.216Z,97903.25
2022-10-02T20:38:40.260Z,97921.56
2022-10-02T20:41:19.864Z,97923.25
2022-10-02T20:43:51.317Z,97927.41
2022-10-02T20:47:01.917Z,97934.38
2022-10-02T20:49:40.183Z,97936.94
2022-10-02T20:52:21.726Z,97945.47
2022-10-02T20:55:11.088Z,97945.44
2022-10-02T20:58:01.235Z,97954.03
2022-10-02T21:00:32.216Z,97965.13
2022-10-02T21:03:21.857Z,97963.41
2022-10-02T21:06:18.373Z,97957.44
2022-10-02T21:08:54.021Z,97964.28
2022-10-02T21:11:45.048Z,97963.38
2022-10-02T21:14:29.755Z,97967.69
2022-10-02T21:17:18.933Z,97965.94
2022-10-02T21:20:07.136Z,97977.94
2022-10-02T21:22:48.715Z,97974.50
2022-10-02T21:25:35.577Z,97977.00
2022-10-02T21:28:04.997Z,97984.75
2022-10-02T21:30:34.960Z,97963.91
2022-10-02T21:33:05.250Z,97985.56
2022-10-02T21:35:41.388Z,97999.25
2022-10-02T21:38:32.723Z,98002.69
2022-10-02T21:41:36.487Z,98011.25
2022-10-02T21:44:21.681Z,98012.06
2022-10-02T21:47:21.656Z,98012.06
2022-10-02T21:50:15.667Z,98018.88
2022-10-02T21:53:39.232Z,98019.75
2022-10-02T21:56:12.727Z,98026.56
2022-10-02T21:59:02.597Z,98021.47
2022-10-02T22:01:42.680Z,98031.69
2022-10-02T22:04:49.384Z,98035.13
2022-10-02T22:07:25.988Z,98044.50
2022-10-02T22:10:26.574Z,98041.97
2022-10-02T22:13:18.203Z,98046.19
2022-10-02T22:15:52.440Z,98037.69
2022-10-02T22:18:39.284Z,98052.19
2022-10-02T22:21:20.945Z,98054.78
2022-10-02T22:24:12.180Z,98052.19
2022-10-02T22:27:08.827Z,98055.63
2022-10-02T22:29:54.252Z,98059.00
2022-10-02T22:33:10.507Z,98056.44
2022-10-02T22:35:55.154Z,98061.56
2022-10-02T22:38:41.943Z,98065.00
2022-10-02T22:41:26.968Z,98075.28
2022-10-02T22:44:16.436Z,98067.53
2022-10-02T22:46:49.216Z,98070.09
2022-10-02T22:49:27.136Z,98070.94
2022-10-02T22:52:16.317Z,98070.94
2022-10-02T22:54:55.216Z,98066.69
2022-10-02T22:57:30.420Z,98068.38
2022-10-02T22:59:58.973Z,98073.50
2022-10-02T23:02:32.583Z,98073.50
2022-10-02T23:05:14.008Z,98074.38
2022-10-02T23:07:51.068Z,98065.50
2022-10-02T23:10:22.824Z,98085.50
2022-10-02T23:12:52.118Z,98086.38
2022-10-02T23:15:42.742Z,98074.97
2022-10-02T23:18:35.062Z,98079.19
2022-10-02T23:21:32.493Z,98100.06
2022-10-02T23:24:25.749Z,98094.06
2022-10-02T23:27:14.444Z,98088.09
2022-10-02T23:30:11.137Z,98083.75
2022-10-02T23:32:44.787Z,98097.44
2022-10-02T23:35:13.289Z,98102.56
2022-10-02T23:37:53.661Z,98092.16
2022-10-02T23:40:50.050Z,98105.03
2022-10-02T23:43:32.541Z,98098.06
2022-10-02T23:46:05.682Z,98111.13
2022-10-02T23:48:32.507Z,98109.38
2022-10-02T23:51:22.102Z,98111.13
2022-10-02T23:54:04.545Z,98105.97
2022-10-02T23:56:32.044Z,98105.09
2022-10-02T23:59:04.304Z,98111.09
